createdAt,value
2019-05-03T00:01:58.176Z,15.37
2019-05-03T00:04:27.853Z,14.53
2019-05-03T00:06:57.412Z,15.47
2019-05-03T00:09:28.403Z,16.03
2019-05-03T00:11:58.192Z,15.43
2019-05-03T00:14:27.754Z,15.83
2019-05-03T00:16:57.425Z,16.63
2019-05-03T00:19:26.987Z,16.57
2019-05-03T00:21:56.666Z,17.40
2019-05-03T00:24:26.169Z,16.00
2019-05-03T00:26:55.654Z,17.03
2019-05-03T00:29:25.158Z,16.70
2019-05-03T00:31:54.626Z,16.57
2019-05-03T00:34:25.978Z,16.47
2019-05-03T00:37:16.469Z,15.73
2019-05-03T00:39:48.003Z,16.32
2019-05-03T00:42:18.056Z,15.23
2019-05-03T00:44:47.516Z,16.50
2019-05-03T00:47:17.056Z,15.53
2019-05-03T00:49:46.520Z,15.87
2019-05-03T00:52:16.019Z,15.20
2019-05-03T00:54:45.502Z,15.97
2019-05-03T00:57:15.078Z,16.17
2019-05-03T00:59:44.540Z,16.07
2019-05-03T01:02:14.326Z,15.23
2019-05-03T01:04:43.828Z,16.00
2019-05-03T01:07:13.388Z,15.90
2019-05-03T01:09:42.944Z,16.10
2019-05-03T01:12:12.718Z,14.33
2019-05-03T01:14:43.784Z,15.37
2019-05-03T01:17:13.320Z,14.07
2019-05-03T01:19:42.793Z,14.40
2019-05-03T01:22:12.273Z,14.40
2019-05-03T01:24:42.782Z,14.13
2019-05-03T01:27:12.503Z,12.97
2019-05-03T01:29:42.523Z,13.63
2019-05-03T01:32:12.140Z,12.57
2019-05-03T01:34:41.730Z,12.80
2019-05-03T01:37:11.943Z,13.60
2019-05-03T01:39:42.119Z,13.33
2019-05-03T01:42:12.000Z,13.77
2019-05-03T01:44:42.729Z,12.77
2019-05-03T01:47:13.952Z,12.37
2019-05-03T01:49:47.987Z,12.30
2019-05-03T01:52:19.119Z,11.93
2019-05-03T01:54:48.609Z,10.97
2019-05-03T01:57:18.098Z,11.30
2019-05-03T01:59:47.741Z,10.97
2019-05-03T02:02:18.850Z,11.20
2019-05-03T02:04:49.961Z,11.50
2019-05-03T02:07:19.826Z,10.33
2019-05-03T02:09:49.326Z,10.90
2019-05-03T02:12:18.950Z,10.10
2019-05-03T02:14:48.454Z,10.20
2019-05-03T02:17:17.949Z,9.87
2019-05-03T02:19:47.414Z,9.70
2019-05-03T02:22:16.938Z,10.20
2019-05-03T02:24:46.444Z,10.50
2019-05-03T02:27:15.901Z,9.43
2019-05-03T02:29:45.455Z,10.47
2019-05-03T02:32:14.935Z,9.77
2019-05-03T02:34:44.403Z,9.63
2019-05-03T02:37:14.178Z,9.60
2019-05-03T02:39:43.679Z,10.10
2019-05-03T02:42:15.732Z,11.50
2019-05-03T02:44:46.252Z,12.97
2019-05-03T02:47:17.295Z,11.33
2019-05-03T02:49:48.381Z,12.07
2019-05-03T02:52:19.494Z,10.47
2019-05-03T02:54:48.972Z,10.90
2019-05-03T02:57:18.469Z,10.00
2019-05-03T02:59:49.847Z,9.73
2019-05-03T03:02:19.314Z,9.80
2019-05-03T03:04:48.780Z,10.87
2019-05-03T03:07:19.201Z,11.07
2019-05-03T03:09:55.906Z,12.40
2019-05-03T03:12:28.267Z,11.93
2019-05-03T03:15:01.864Z,12.63
2019-05-03T03:17:36.444Z,12.73
2019-05-03T03:20:08.448Z,12.37
2019-05-03T03:22:45.319Z,12.90
2019-05-03T03:28:09.536Z,12.77
2019-05-03T03:30:48.225Z,13.10
2019-05-03T03:33:34.015Z,13.57
2019-05-03T03:36:32.055Z,11.63
2019-05-03T03:38:36.471Z,12.60
2019-05-03T03:41:06.525Z,11.93
2019-05-03T03:43:37.879Z,11.67
2019-05-03T03:46:10.273Z,11.10
2019-05-03T03:48:41.537Z,12.60
2019-05-03T03:51:15.526Z,11.33
2019-05-03T03:53:47.576Z,12.47
2019-05-03T03:56:19.985Z,11.80
2019-05-03T03:58:49.864Z,11.90
2019-05-03T04:01:19.689Z,12.40
2019-05-03T04:03:49.539Z,12.07
2019-05-03T04:06:20.947Z,11.70
2019-05-03T04:08:50.593Z,13.00
2019-05-03T04:11:20.240Z,12.40
2019-05-03T04:13:50.086Z,12.37
2019-05-03T04:16:21.491Z,12.37
2019-05-03T04:18:55.135Z,13.00
2019-05-03T04:21:25.475Z,12.13
2019-05-03T04:23:55.792Z,11.80
2019-05-03T04:26:29.472Z,11.77
2019-05-03T04:28:57.189Z,12.43
2019-05-03T04:31:26.711Z,11.40
2019-05-03T04:33:56.414Z,12.53
2019-05-03T04:36:26.412Z,12.27
2019-05-03T04:38:56.462Z,12.43
2019-05-03T04:41:26.980Z,12.77
2019-05-03T04:43:56.718Z,11.80
2019-05-03T04:46:29.193Z,12.70
2019-05-03T04:48:58.668Z,12.70
2019-05-03T04:51:28.155Z,12.77
2019-05-03T04:53:59.422Z,11.73
2019-05-03T04:56:28.958Z,11.50
2019-05-03T04:58:58.430Z,11.27
2019-05-03T05:01:27.957Z,11.53
2019-05-03T05:03:57.415Z,11.83
2019-05-03T05:06:26.911Z,11.73
2019-05-03T05:08:56.385Z,12.47
2019-05-03T05:11:26.434Z,12.27
2019-05-03T05:13:56.314Z,12.97
2019-05-03T05:16:25.993Z,12.57
2019-05-03T05:18:57.106Z,12.30
2019-05-03T05:21:28.179Z,12.37
2019-05-03T05:23:59.278Z,12.83
2019-05-03T05:26:30.552Z,11.67
2019-05-03T05:29:01.661Z,11.90
2019-05-03T05:31:31.190Z,11.03
2019-05-03T05:34:00.646Z,11.33
2019-05-03T05:36:30.141Z,11.20
2019-05-03T05:38:59.695Z,11.53
2019-05-03T05:41:29.184Z,10.87
2019-05-03T05:43:58.638Z,10.17
2019-05-03T05:46:29.742Z,9.30
2019-05-03T05:48:59.230Z,9.53
2019-05-03T05:51:28.686Z,9.43
2019-05-03T05:53:58.242Z,8.07
2019-05-03T05:56:29.322Z,8.47
2019-05-03T05:59:00.432Z,7.07
2019-05-03T06:01:31.520Z,6.67
2019-05-03T06:04:00.985Z,6.97
2019-05-03T06:06:32.071Z,7.07
2019-05-03T06:09:05.045Z,6.37
2019-05-03T06:11:55.577Z,6.80
2019-05-03T06:14:26.850Z,6.73
2019-05-03T06:16:57.960Z,6.97
2019-05-03T06:19:29.122Z,6.00
2019-05-03T06:24:46.155Z,6.00
2019-05-03T06:27:17.258Z,5.92
2019-05-03T06:30:10.314Z,5.50
2019-05-03T06:32:41.460Z,5.97
2019-05-03T06:35:11.197Z,5.55
2019-05-03T06:37:59.985Z,5.65
2019-05-03T06:40:29.634Z,5.20
2019-05-03T06:43:08.519Z,5.35
2019-05-03T06:45:30.385Z,5.30
2019-05-03T06:47:59.846Z,5.43
2019-05-03T06:50:29.312Z,5.10
2019-05-03T06:52:59.902Z,5.50
2019-05-03T06:55:30.066Z,5.10
2019-05-03T06:57:59.571Z,4.45
2019-05-03T07:00:31.037Z,5.10
2019-05-03T07:03:02.304Z,4.45
2019-05-03T07:05:35.359Z,4.53
2019-05-03T07:08:06.297Z,3.70
2019-05-03T07:10:37.475Z,3.72
2019-05-03T07:13:08.895Z,3.83
2019-05-03T07:15:38.196Z,3.60
2019-05-03T07:18:07.695Z,3.12
2019-05-03T07:20:38.766Z,2.50
2019-05-03T07:23:08.299Z,2.47
2019-05-03T07:25:37.797Z,2.87
2019-05-03T07:28:07.558Z,2.98
2019-05-03T07:30:37.156Z,2.30
2019-05-03T07:33:27.555Z,2.20
2019-05-03T07:35:57.222Z,2.40
2019-05-03T07:38:26.927Z,2.30
2019-05-03T07:40:56.415Z,1.90
2019-05-03T07:43:26.233Z,2.77
2019-05-03T07:45:55.779Z,2.30
2019-05-03T07:48:26.145Z,2.60
2019-05-03T07:51:14.937Z,2.30
2019-05-03T07:53:45.111Z,2.12
2019-05-03T07:56:15.949Z,2.05
2019-05-03T07:59:06.724Z,1.92
2019-05-03T08:01:38.541Z,2.00
2019-05-03T08:04:08.125Z,2.12
2019-05-03T08:06:37.619Z,1.90
2019-05-03T08:09:09.218Z,2.00
2019-05-03T08:11:38.920Z,2.33
2019-05-03T08:14:08.691Z,2.40
2019-05-03T08:16:38.513Z,2.30
2019-05-03T08:19:08.049Z,2.15
2019-05-03T08:21:38.802Z,2.30
2019-05-03T08:24:08.863Z,2.50
2019-05-03T08:26:38.336Z,2.27
2019-05-03T08:29:16.292Z,2.55
2019-05-03T08:32:00.313Z,3.10
2019-05-03T08:34:31.425Z,2.95
2019-05-03T08:37:02.603Z,2.40
2019-05-03T08:39:32.082Z,2.12
2019-05-03T08:42:22.518Z,2.40
2019-05-03T08:44:52.144Z,2.20
2019-05-03T08:47:21.873Z,1.95
2019-05-03T08:49:51.380Z,1.85
2019-05-03T08:52:20.948Z,2.40
2019-05-03T08:54:59.466Z,2.52
2019-05-03T08:57:28.954Z,2.20
2019-05-03T08:59:58.434Z,2.20
2019-05-03T09:02:28.126Z,2.30
2019-05-03T09:04:57.582Z,2.58
2019-05-03T09:07:27.091Z,2.58
2019-05-03T09:09:58.235Z,2.62
2019-05-03T09:12:29.314Z,2.85
2019-05-03T09:14:58.815Z,2.80
2019-05-03T09:17:28.512Z,2.50
2019-05-03T09:19:57.997Z,2.45
2019-05-03T09:22:27.489Z,2.22
2019-05-03T09:24:56.969Z,2.20
2019-05-03T09:27:26.469Z,2.20
2019-05-03T09:29:56.009Z,2.30
2019-05-03T09:32:25.747Z,2.17
2019-05-03T09:34:55.298Z,2.35
2019-05-03T09:37:25.110Z,2.52
2019-05-03T09:39:55.165Z,2.27
2019-05-03T09:42:24.985Z,2.25
2019-05-03T09:44:55.649Z,2.60
2019-05-03T09:47:25.405Z,2.40
2019-05-03T09:49:57.511Z,2.50
2019-05-03T09:52:30.837Z,2.20
2019-05-03T09:55:01.907Z,2.30
2019-05-03T09:57:31.378Z,2.27
2019-05-03T10:00:00.883Z,1.98
2019-05-03T10:02:30.349Z,1.90
2019-05-03T10:04:59.849Z,2.20
2019-05-03T10:07:29.386Z,2.40
2019-05-03T10:09:59.245Z,4.55
2019-05-03T10:12:28.748Z,2.72
2019-05-03T10:15:00.355Z,2.40
2019-05-03T10:21:11.826Z,2.85
2019-05-03T10:23:41.526Z,2.35
2019-05-03T10:26:11.232Z,2.30
2019-05-03T10:28:40.763Z,2.70
2019-05-03T10:31:10.241Z,2.50
2019-05-03T10:33:41.402Z,2.83
2019-05-03T10:36:11.077Z,2.37
2019-05-03T10:38:40.565Z,2.60
2019-05-03T10:41:10.135Z,2.85
2019-05-03T10:43:39.649Z,2.15
2019-05-03T10:46:09.113Z,2.25
2019-05-03T10:48:38.535Z,3.00
2019-05-03T10:51:08.030Z,2.70
2019-05-03T10:53:39.107Z,2.72
2019-05-03T10:56:29.542Z,2.50
2019-05-03T10:59:19.557Z,2.90
2019-05-03T11:01:50.667Z,2.35
2019-05-03T11:04:20.684Z,2.80
2019-05-03T11:06:50.417Z,2.17
2019-05-03T11:09:20.014Z,2.33
2019-05-03T11:11:49.540Z,2.60
2019-05-03T11:14:19.011Z,2.20
2019-05-03T11:16:48.563Z,2.20
2019-05-03T11:19:18.099Z,2.10
2019-05-03T11:22:06.957Z,2.70
2019-05-03T11:24:36.421Z,2.47
2019-05-03T11:27:07.775Z,2.12
2019-05-03T11:29:37.327Z,2.35
2019-05-03T11:32:10.366Z,2.20
2019-05-03T11:34:41.461Z,2.62
2019-05-03T11:37:14.527Z,2.02
2019-05-03T11:39:45.199Z,2.08
2019-05-03T11:42:15.306Z,2.35
2019-05-03T11:44:46.250Z,2.47
2019-05-03T11:47:15.752Z,2.50
2019-05-03T11:49:45.567Z,2.58
2019-05-03T11:52:16.008Z,3.15
2019-05-03T11:54:49.801Z,3.00
2019-05-03T11:57:20.884Z,2.95
2019-05-03T11:59:50.427Z,2.80
2019-05-03T12:02:21.538Z,2.72
2019-05-03T12:04:50.995Z,2.72
2019-05-03T12:07:35.764Z,2.80
2019-05-03T12:09:54.707Z,2.22
2019-05-03T12:12:25.861Z,2.80
2019-05-03T12:14:55.466Z,2.75
2019-05-03T12:17:54.272Z,2.70
2019-05-03T12:20:19.273Z,2.42
2019-05-03T12:22:49.400Z,2.30
2019-05-03T12:25:20.325Z,2.62
2019-05-03T12:27:50.181Z,2.47
2019-05-03T12:30:20.184Z,2.62
2019-05-03T12:33:09.349Z,2.20
2019-05-03T12:35:38.920Z,2.67
2019-05-03T12:38:08.484Z,2.72
2019-05-03T12:40:38.013Z,2.65
2019-05-03T12:43:07.647Z,2.50
2019-05-03T12:45:56.425Z,2.50
2019-05-03T12:48:25.888Z,2.40
2019-05-03T12:50:55.755Z,2.40
2019-05-03T12:53:25.445Z,2.45
2019-05-03T12:55:54.924Z,2.90
2019-05-03T12:58:25.999Z,2.67
2019-05-03T13:00:57.137Z,2.25
2019-05-03T13:03:28.205Z,2.72
2019-05-03T13:05:57.699Z,2.50
2019-05-03T13:08:31.752Z,2.72
2019-05-03T13:11:01.314Z,2.10
2019-05-03T13:13:30.930Z,2.33
2019-05-03T13:16:00.702Z,2.40
2019-05-03T13:18:49.543Z,1.87
2019-05-03T13:21:19.140Z,2.10
2019-05-03T13:23:48.594Z,1.62
2019-05-03T13:26:18.070Z,1.90
2019-05-03T13:28:47.597Z,1.70
2019-05-03T13:31:17.080Z,1.62
2019-05-03T13:33:46.587Z,1.90
2019-05-03T13:36:16.428Z,1.80
2019-05-03T13:38:45.927Z,1.70
2019-05-03T13:41:18.099Z,1.87
2019-05-03T13:43:48.496Z,1.72
2019-05-03T13:46:17.999Z,1.72
2019-05-03T13:48:49.264Z,1.98
2019-05-03T13:51:18.860Z,2.10
2019-05-03T13:53:48.332Z,2.02
2019-05-03T13:56:18.275Z,2.30
2019-05-03T13:58:47.802Z,2.20
2019-05-03T14:01:17.273Z,2.05
2019-05-03T14:03:46.771Z,1.80
2019-05-03T14:06:16.268Z,2.02
2019-05-03T14:08:45.766Z,2.00
2019-05-03T14:11:15.638Z,2.17
2019-05-03T14:13:45.356Z,1.70
2019-05-03T14:16:14.866Z,1.98
2019-05-03T14:18:45.934Z,2.12
2019-05-03T14:21:17.222Z,2.85
2019-05-03T14:23:51.864Z,2.20
2019-05-03T14:26:21.369Z,2.50
2019-05-03T14:28:50.892Z,2.35
2019-05-03T14:31:25.186Z,3.00
2019-05-03T14:33:55.832Z,2.67
2019-05-03T14:36:25.730Z,2.27
2019-05-03T14:38:55.463Z,2.42
2019-05-03T14:41:25.538Z,2.70
2019-05-03T14:43:55.840Z,2.45
2019-05-03T14:46:32.869Z,2.40
2019-05-03T14:48:56.756Z,2.20
2019-05-03T14:51:26.560Z,2.40
2019-05-03T14:53:57.016Z,2.70
2019-05-03T14:56:28.320Z,2.55
2019-05-03T14:58:59.500Z,2.35
2019-05-03T15:01:30.600Z,2.30
2019-05-03T15:04:00.636Z,2.00
2019-05-03T15:06:30.142Z,1.72
2019-05-03T15:09:07.546Z,2.08
2019-05-03T15:11:37.052Z,2.05
2019-05-03T15:14:06.677Z,2.10
2019-05-03T15:16:36.164Z,2.30
2019-05-03T15:19:05.734Z,2.40
2019-05-03T15:21:35.201Z,2.42
2019-05-03T15:24:05.481Z,2.35
2019-05-03T15:26:35.717Z,2.42
2019-05-03T15:29:05.601Z,2.10
2019-05-03T15:31:35.462Z,2.50
2019-05-03T15:34:05.286Z,1.98
2019-05-03T15:36:34.831Z,2.30
2019-05-03T15:39:05.841Z,2.08
2019-05-03T15:41:36.423Z,2.30
2019-05-03T15:46:58.578Z,2.40
2019-05-03T15:49:28.055Z,2.60
2019-05-03T15:51:57.542Z,2.50
2019-05-03T15:54:27.057Z,2.35
2019-05-03T15:56:56.534Z,3.00
2019-05-03T15:59:27.554Z,2.60
2019-05-03T16:01:57.258Z,2.12
2019-05-03T16:04:26.731Z,2.50
2019-05-03T16:06:56.201Z,2.40
2019-05-03T16:09:25.714Z,2.52
2019-05-03T16:11:55.624Z,2.27
2019-05-03T16:14:25.401Z,2.37
2019-05-03T16:16:55.009Z,2.62
2019-05-03T16:19:24.495Z,2.50
2019-05-03T16:21:54.573Z,2.35
2019-05-03T16:24:24.893Z,2.52
2019-05-03T16:27:08.859Z,2.30
2019-05-03T16:29:38.391Z,2.35
2019-05-03T16:32:07.951Z,2.55
2019-05-03T16:34:37.435Z,2.40
2019-05-03T16:37:07.134Z,2.12
2019-05-03T16:39:36.716Z,2.42
2019-05-03T16:42:06.906Z,2.35
2019-05-03T16:44:36.567Z,4.47
2019-05-03T16:47:07.201Z,3.50
2019-05-03T16:49:36.908Z,3.50
2019-05-03T16:52:06.533Z,2.52
2019-05-03T16:54:36.027Z,2.50
2019-05-03T16:57:24.874Z,2.65
2019-05-03T17:00:05.686Z,2.40
2019-05-03T17:02:35.149Z,2.77
2019-05-03T17:05:07.775Z,2.70
2019-05-03T17:07:38.834Z,2.50
2019-05-03T17:10:11.261Z,3.10
2019-05-03T17:12:40.712Z,2.75
2019-05-03T17:15:19.569Z,2.67
2019-05-03T17:17:57.686Z,3.37
2019-05-03T17:20:27.268Z,3.40
2019-05-03T17:22:56.737Z,3.70
2019-05-03T17:25:29.862Z,3.20
2019-05-03T17:27:59.362Z,4.42
2019-05-03T17:30:33.656Z,3.20
2019-05-03T17:33:00.045Z,3.02
2019-05-03T17:35:29.599Z,2.70
2019-05-03T17:37:59.123Z,2.90
2019-05-03T17:40:30.209Z,2.87
2019-05-03T17:43:01.340Z,2.30
2019-05-03T17:45:38.474Z,2.60
2019-05-03T17:48:08.003Z,2.70
2019-05-03T17:50:37.489Z,2.50
2019-05-03T17:53:08.555Z,3.08
2019-05-03T17:55:39.693Z,2.67
2019-05-03T17:58:10.855Z,2.90
2019-05-03T18:00:41.955Z,2.58
2019-05-03T18:03:11.663Z,2.50
2019-05-03T18:05:44.818Z,2.70
2019-05-03T18:08:15.675Z,2.70
2019-05-03T18:10:46.962Z,2.83
2019-05-03T18:13:16.432Z,2.67
2019-05-03T18:15:45.902Z,2.87
2019-05-03T18:18:15.796Z,2.60
2019-05-03T18:20:45.373Z,2.80
2019-05-03T18:23:15.397Z,2.80
2019-05-03T18:25:46.098Z,2.67
2019-05-03T18:28:15.584Z,2.60
2019-05-03T18:30:45.529Z,3.08
2019-05-03T18:33:15.439Z,2.70
2019-05-03T18:35:45.092Z,2.80
2019-05-03T18:38:14.923Z,2.50
2019-05-03T18:40:45.270Z,2.85
2019-05-03T18:43:16.381Z,2.87
2019-05-03T18:46:06.982Z,2.85
2019-05-03T18:48:36.478Z,2.87
2019-05-03T18:51:06.057Z,2.80
2019-05-03T18:53:35.565Z,3.17
2019-05-03T18:56:05.141Z,2.90
2019-05-03T18:58:34.620Z,2.92
2019-05-03T19:01:05.345Z,3.00
2019-05-03T19:03:35.081Z,2.60
2019-05-03T19:06:06.362Z,2.57
2019-05-03T19:08:37.529Z,2.70
2019-05-03T19:11:08.668Z,2.90
2019-05-03T19:13:41.537Z,3.10
2019-05-03T19:16:14.917Z,3.00
2019-05-03T19:18:45.408Z,3.27
2019-05-03T19:21:15.111Z,3.30
2019-05-03T19:23:44.848Z,3.00
2019-05-03T19:26:14.895Z,3.07
2019-05-03T19:28:44.549Z,3.20
2019-05-03T19:31:14.320Z,3.33
2019-05-03T19:33:45.650Z,3.50
2019-05-03T19:36:15.034Z,3.23
2019-05-03T19:38:44.676Z,3.47
2019-05-03T19:41:16.049Z,3.40
2019-05-03T19:43:45.394Z,3.00
2019-05-03T19:46:16.590Z,3.80
2019-05-03T19:48:46.215Z,3.53
2019-05-03T19:51:15.685Z,3.37
2019-05-03T19:53:46.797Z,3.60
2019-05-03T19:56:16.940Z,3.60
2019-05-03T19:58:46.812Z,3.33
2019-05-03T20:01:17.934Z,3.67
2019-05-03T20:03:49.013Z,3.30
2019-05-03T20:06:20.022Z,3.27
2019-05-03T20:08:51.414Z,3.50
2019-05-03T20:11:20.894Z,3.57
2019-05-03T20:13:50.358Z,3.50
2019-05-03T20:16:19.844Z,3.30
2019-05-03T20:18:49.308Z,3.90
2019-05-03T20:21:18.961Z,3.90
2019-05-03T20:23:48.978Z,3.70
2019-05-03T20:26:18.508Z,3.30
2019-05-03T20:28:47.986Z,3.60
2019-05-03T20:31:17.528Z,3.60
2019-05-03T20:33:46.988Z,3.63
2019-05-03T20:36:16.543Z,4.17
2019-05-03T20:38:46.045Z,4.10
2019-05-03T20:41:15.553Z,4.17
2019-05-03T20:43:46.778Z,3.77
2019-05-03T20:46:37.214Z,3.87
2019-05-03T20:49:08.317Z,3.97
2019-05-03T20:51:37.795Z,3.97
2019-05-03T20:54:07.299Z,3.60
2019-05-03T20:56:56.094Z,4.23
2019-05-03T20:59:25.596Z,4.10
2019-05-03T21:01:55.072Z,3.93
2019-05-03T21:04:24.835Z,3.87
2019-05-03T21:06:55.214Z,4.10
2019-05-03T21:09:24.833Z,3.60
2019-05-03T21:12:00.209Z,4.10
2019-05-03T21:14:29.663Z,4.10
2019-05-03T21:17:00.764Z,4.27
2019-05-03T21:19:31.880Z,3.93
2019-05-03T21:22:02.969Z,4.10
2019-05-03T21:24:34.879Z,3.83
2019-05-03T21:27:05.092Z,3.80
2019-05-03T21:29:36.167Z,3.87
2019-05-03T21:32:05.653Z,4.03
2019-05-03T21:34:35.146Z,4.43
2019-05-03T21:37:04.780Z,4.03
2019-05-03T21:39:34.850Z,4.03
2019-05-03T21:42:04.765Z,4.03
2019-05-03T21:44:35.362Z,3.87
2019-05-03T21:47:06.588Z,3.87
2019-05-03T21:49:37.776Z,4.20
2019-05-03T21:52:07.430Z,4.03
2019-05-03T21:54:36.889Z,3.77
2019-05-03T21:57:06.405Z,4.20
2019-05-03T21:59:35.883Z,4.33
2019-05-03T22:02:05.437Z,3.90
2019-05-03T22:04:54.247Z,3.90
2019-05-03T22:07:26.519Z,3.83
2019-05-03T22:10:00.860Z,4.30
2019-05-03T22:12:30.345Z,4.10
2019-05-03T22:15:20.751Z,4.17
2019-05-03T22:17:51.841Z,3.90
2019-05-03T22:20:24.615Z,3.90
2019-05-03T22:22:55.867Z,4.07
2019-05-03T22:25:26.967Z,3.93
2019-05-03T22:27:56.520Z,4.33
2019-05-03T22:30:26.899Z,4.30
2019-05-03T22:32:56.530Z,3.73
2019-05-03T22:35:25.991Z,3.77
2019-05-03T22:37:55.558Z,4.17
2019-05-03T22:40:25.268Z,4.03
2019-05-03T22:42:54.861Z,4.00
2019-05-03T22:45:45.623Z,4.07
2019-05-03T22:48:14.908Z,4.20
2019-05-03T22:50:44.904Z,3.83
2019-05-03T22:53:14.837Z,4.60
2019-05-03T22:56:04.929Z,3.83
2019-05-03T22:58:35.450Z,4.13
2019-05-03T23:01:05.226Z,4.27
2019-05-03T23:03:36.324Z,4.20
2019-05-03T23:06:05.859Z,4.20
2019-05-03T23:08:35.334Z,4.10
2019-05-03T23:11:05.271Z,4.37
2019-05-03T23:13:34.874Z,4.33
2019-05-03T23:16:05.166Z,4.17
2019-05-03T23:18:35.131Z,4.37
2019-05-03T23:21:06.305Z,4.40
2019-05-03T23:23:37.444Z,4.60
2019-05-03T23:26:06.932Z,4.17
2019-05-03T23:28:36.512Z,4.77
2019-05-03T23:31:06.003Z,4.50
2019-05-03T23:33:35.485Z,4.20
2019-05-03T23:36:05.174Z,4.57
2019-05-03T23:38:54.655Z,4.93
2019-05-03T23:41:24.621Z,4.40
2019-05-03T23:43:54.123Z,4.10
2019-05-03T23:46:25.317Z,4.50
2019-05-03T23:48:54.961Z,4.40
2019-05-03T23:51:26.048Z,4.57
2019-05-03T23:53:55.528Z,4.27
2019-05-03T23:56:25.163Z,4.40
2019-05-03T23:58:55.122Z,5.13
